sensor_id;sensor_type;location;lat;lon;timestamp;temperature;humidity
34472;DHT22;20710;49.976;19.836;2022-10-23T00:00:59;12.13;90.23
34472;DHT22;20710;49.976;19.836;2022-10-23T00:07:03;12.13;90.29
34472;DHT22;20710;49.976;19.836;2022-10-23T00:13:04;12.16;90.49
34472;DHT22;20710;49.976;19.836;2022-10-23T00:19:05;12.15;90.38
34472;DHT22;20710;49.976;19.836;2022-10-23T00:25:09;12.15;90.54
34472;DHT22;20710;49.976;19.836;2022-10-23T00:31:11;12.13;90.68
34472;DHT22;20710;49.976;19.836;2022-10-23T00:37:15;12.13;90.79
34472;DHT22;20710;49.976;19.836;2022-10-23T00:43:25;12.16;90.61
34472;DHT22;20710;49.976;19.836;2022-10-23T00:49:27;12.16;90.68
34472;DHT22;20710;49.976;19.836;2022-10-23T00:55:31;12.15;90.78
34472;DHT22;20710;49.976;19.836;2022-10-23T01:01:33;12.16;90.73
34472;DHT22;20710;49.976;19.836;2022-10-23T01:14:50;12.15;90.56
34472;DHT22;20710;49.976;19.836;2022-10-23T01:21:11;12.09;90.51
34472;DHT22;20710;49.976;19.836;2022-10-23T01:27:33;12.12;90.63
34472;DHT22;20710;49.976;19.836;2022-10-23T01:33:42;12.10;90.65
34472;DHT22;20710;49.976;19.836;2022-10-23T01:46:29;12.12;90.94
34472;DHT22;20710;49.976;19.836;2022-10-23T01:52:35;12.10;90.50
34472;DHT22;20710;49.976;19.836;2022-10-23T01:58:43;12.05;90.49
34472;DHT22;20710;49.976;19.836;2022-10-23T02:04:56;12.02;90.78
34472;DHT22;20710;49.976;19.836;2022-10-23T02:18:04;12.06;90.81
34472;DHT22;20710;49.976;19.836;2022-10-23T02:24:14;12.02;90.60
34472;DHT22;20710;49.976;19.836;2022-10-23T02:30:19;12.03;90.60
34472;DHT22;20710;49.976;19.836;2022-10-23T02:36:26;12.00;90.77
34472;DHT22;20710;49.976;19.836;2022-10-23T02:43:13;11.95;90.79
34472;DHT22;20710;49.976;19.836;2022-10-23T03:02:24;11.79;90.66
34472;DHT22;20710;49.976;19.836;2022-10-23T03:08:25;11.75;90.87
34472;DHT22;20710;49.976;19.836;2022-10-23T03:14:27;11.75;90.62
34472;DHT22;20710;49.976;19.836;2022-10-23T03:20:28;11.72;90.69
34472;DHT22;20710;49.976;19.836;2022-10-23T03:26:30;11.71;90.87
34472;DHT22;20710;49.976;19.836;2022-10-23T03:32:32;11.70;90.78
34472;DHT22;20710;49.976;19.836;2022-10-23T03:38:34;11.71;90.63
34472;DHT22;20710;49.976;19.836;2022-10-23T03:44:36;11.65;90.73
34472;DHT22;20710;49.976;19.836;2022-10-23T03:50:38;11.65;90.69
34472;DHT22;20710;49.976;19.836;2022-10-23T03:56:40;11.62;90.81
34472;DHT22;20710;49.976;19.836;2022-10-23T04:02:42;11.61;90.76
34472;DHT22;20710;49.976;19.836;2022-10-23T04:08:44;11.55;90.90
34472;DHT22;20710;49.976;19.836;2022-10-23T04:14:47;11.51;91.00
34472;DHT22;20710;49.976;19.836;2022-10-23T04:20:50;11.50;90.75
34472;DHT22;20710;49.976;19.836;2022-10-23T04:26:52;11.33;90.72
34472;DHT22;20710;49.976;19.836;2022-10-23T04:32:55;11.25;90.77
34472;DHT22;20710;49.976;19.836;2022-10-23T04:45:41;11.25;90.96
34472;DHT22;20710;49.976;19.836;2022-10-23T04:51:42;11.20;91.05
34472;DHT22;20710;49.976;19.836;2022-10-23T04:58:02;11.19;90.77
34472;DHT22;20710;49.976;19.836;2022-10-23T05:04:04;11.19;90.77
34472;DHT22;20710;49.976;19.836;2022-10-23T05:10:09;11.20;90.73
34472;DHT22;20710;49.976;19.836;2022-10-23T05:22:38;11.05;90.74
34472;DHT22;20710;49.976;19.836;2022-10-23T05:28:44;11.02;90.80
34472;DHT22;20710;49.976;19.836;2022-10-23T05:34:48;11.02;90.82
34472;DHT22;20710;49.976;19.836;2022-10-23T05:40:51;11.03;90.97
34472;DHT22;20710;49.976;19.836;2022-10-23T05:53:20;11.13;91.17
34472;DHT22;20710;49.976;19.836;2022-10-23T05:59:29;11.19;91.22
34472;DHT22;20710;49.976;19.836;2022-10-23T06:05:51;11.23;90.99
34472;DHT22;20710;49.976;19.836;2022-10-23T06:11:56;11.31;91.34
34472;DHT22;20710;49.976;19.836;2022-10-23T06:18:03;11.46;91.14
34472;DHT22;20710;49.976;19.836;2022-10-23T06:24:08;11.54;91.30
34472;DHT22;20710;49.976;19.836;2022-10-23T06:30:21;11.61;91.23
34472;DHT22;20710;49.976;19.836;2022-10-23T06:36:25;11.72;91.36
34472;DHT22;20710;49.976;19.836;2022-10-23T06:42:28;11.82;91.33
34472;DHT22;20710;49.976;19.836;2022-10-23T06:48:30;11.92;91.29
34472;DHT22;20710;49.976;19.836;2022-10-23T06:54:35;12.03;91.22
34472;DHT22;20710;49.976;19.836;2022-10-23T07:00:39;12.15;91.17
34472;DHT22;20710;49.976;19.836;2022-10-23T07:06:41;12.34;91.08
34472;DHT22;20710;49.976;19.836;2022-10-23T07:12:43;12.58;91.05
34472;DHT22;20710;49.976;19.836;2022-10-23T07:18:56;13.03;90.89
34472;DHT22;20710;49.976;19.836;2022-10-23T07:25:01;13.55;90.44
34472;DHT22;20710;49.976;19.836;2022-10-23T07:31:08;13.64;89.66
34472;DHT22;20710;49.976;19.836;2022-10-23T07:37:29;13.58;89.00
34472;DHT22;20710;49.976;19.836;2022-10-23T07:43:33;13.64;88.67
34472;DHT22;20710;49.976;19.836;2022-10-23T07:49:35;13.66;88.44
34472;DHT22;20710;49.976;19.836;2022-10-23T07:55:37;13.65;88.22
34472;DHT22;20710;49.976;19.836;2022-10-23T08:01:42;13.71;88.10
34472;DHT22;20710;49.976;19.836;2022-10-23T08:07:44;13.75;88.02
34472;DHT22;20710;49.976;19.836;2022-10-23T08:13:46;13.75;87.75
34472;DHT22;20710;49.976;19.836;2022-10-23T08:19:48;13.85;87.62
34472;DHT22;20710;49.976;19.836;2022-10-23T08:32:16;14.61;87.08
34472;DHT22;20710;49.976;19.836;2022-10-23T08:38:21;15.00;86.58
34472;DHT22;20710;49.976;19.836;2022-10-23T08:44:54;15.92;86.09
34472;DHT22;20710;49.976;19.836;2022-10-23T08:58:28;17.94;83.40
34472;DHT22;20710;49.976;19.836;2022-10-23T09:04:31;18.71;80.99
34472;DHT22;20710;49.976;19.836;2022-10-23T09:11:14;19.15;79.10
34472;DHT22;20710;49.976;19.836;2022-10-23T09:17:33;19.38;77.47
34472;DHT22;20710;49.976;19.836;2022-10-23T09:23:36;19.56;77.49
34472;DHT22;20710;49.976;19.836;2022-10-23T09:29:48;20.12;76.23
34472;DHT22;20710;49.976;19.836;2022-10-23T09:36:00;20.63;74.56
34472;DHT22;20710;49.976;19.836;2022-10-23T09:42:21;21.01;74.31
34472;DHT22;20710;49.976;19.836;2022-10-23T09:48:23;21.37;72.39
34472;DHT22;20710;49.976;19.836;2022-10-23T09:54:24;21.80;72.21
34472;DHT22;20710;49.976;19.836;2022-10-23T10:00:26;22.02;70.96
34472;DHT22;20710;49.976;19.836;2022-10-23T10:06:32;22.42;69.64
34472;DHT22;20710;49.976;19.836;2022-10-23T10:12:50;22.60;68.37
34472;DHT22;20710;49.976;19.836;2022-10-23T10:32:56;22.23;67.04
34472;DHT22;20710;49.976;19.836;2022-10-23T10:39:01;22.15;66.76
34472;DHT22;20710;49.976;19.836;2022-10-23T10:45:47;22.01;66.48
34472;DHT22;20710;49.976;19.836;2022-10-23T10:52:37;21.90;66.28
34472;DHT22;20710;49.976;19.836;2022-10-23T11:05:43;21.97;66.16
34472;DHT22;20710;49.976;19.836;2022-10-23T11:12:04;21.85;65.84
34472;DHT22;20710;49.976;19.836;2022-10-23T11:18:19;21.57;65.63
34472;DHT22;20710;49.976;19.836;2022-10-23T11:31:35;20.63;65.37
34472;DHT22;20710;49.976;19.836;2022-10-23T11:37:36;20.46;65.54
34472;DHT22;20710;49.976;19.836;2022-10-23T11:44:01;20.35;65.44
34472;DHT22;20710;49.976;19.836;2022-10-23T11:50:11;20.22;65.56
34472;DHT22;20710;49.976;19.836;2022-10-23T12:02:37;19.77;65.88
34472;DHT22;20710;49.976;19.836;2022-10-23T12:08:41;19.57;65.93
34472;DHT22;20710;49.976;19.836;2022-10-23T12:14:50;19.40;66.36
34472;DHT22;20710;49.976;19.836;2022-10-23T12:20:58;19.28;66.52
34472;DHT22;20710;49.976;19.836;2022-10-23T12:27:34;19.15;66.40
34472;DHT22;20710;49.976;19.836;2022-10-23T12:34:35;19.16;66.89
34472;DHT22;20710;49.976;19.836;2022-10-23T12:40:08;19.23;67.33
34472;DHT22;20710;49.976;19.836;2022-10-23T12:46:29;19.25;67.22
34472;DHT22;20710;49.976;19.836;2022-10-23T12:52:32;19.08;67.08
34472;DHT22;20710;49.976;19.836;2022-10-23T12:58:52;18.97;67.83
34472;DHT22;20710;49.976;19.836;2022-10-23T13:05:04;18.93;68.25
34472;DHT22;20710;49.976;19.836;2022-10-23T13:11:14;18.81;67.87
34472;DHT22;20710;49.976;19.836;2022-10-23T13:17:41;18.74;67.90
34472;DHT22;20710;49.976;19.836;2022-10-23T13:23:42;18.67;67.95
34472;DHT22;20710;49.976;19.836;2022-10-23T13:29:44;18.60;68.32
34472;DHT22;20710;49.976;19.836;2022-10-23T13:42:15;18.39;68.44
34472;DHT22;20710;49.976;19.836;2022-10-23T13:48:19;18.21;68.81
34472;DHT22;20710;49.976;19.836;2022-10-23T13:54:24;18.05;69.01
34472;DHT22;20710;49.976;19.836;2022-10-23T14:00:26;17.98;69.13
34472;DHT22;20710;49.976;19.836;2022-10-23T14:06:27;17.93;69.24
34472;DHT22;20710;49.976;19.836;2022-10-23T14:12:29;17.84;69.52
34472;DHT22;20710;49.976;19.836;2022-10-23T14:18:31;17.81;69.81
34472;DHT22;20710;49.976;19.836;2022-10-23T14:24:34;17.77;69.94
34472;DHT22;20710;49.976;19.836;2022-10-23T14:30:36;17.72;70.31
34472;DHT22;20710;49.976;19.836;2022-10-23T14:36:38;17.65;70.57
34472;DHT22;20710;49.976;19.836;2022-10-23T14:42:39;17.48;70.77
34472;DHT22;20710;49.976;19.836;2022-10-23T14:48:41;17.34;71.04
34472;DHT22;20710;49.976;19.836;2022-10-23T14:54:43;17.17;71.37
34472;DHT22;20710;49.976;19.836;2022-10-23T15:00:45;17.03;71.76
34472;DHT22;20710;49.976;19.836;2022-10-23T15:06:47;16.83;72.08
34472;DHT22;20710;49.976;19.836;2022-10-23T15:12:49;16.65;72.47
34472;DHT22;20710;49.976;19.836;2022-10-23T15:18:51;16.44;72.97
34472;DHT22;20710;49.976;19.836;2022-10-23T15:24:53;16.25;73.62
34472;DHT22;20710;49.976;19.836;2022-10-23T15:30:58;15.94;74.27
34472;DHT22;20710;49.976;19.836;2022-10-23T15:36:59;15.64;75.16
34472;DHT22;20710;49.976;19.836;2022-10-23T15:43:01;15.33;76.15
34472;DHT22;20710;49.976;19.836;2022-10-23T15:49:03;15.02;76.57
34472;DHT22;20710;49.976;19.836;2022-10-23T15:55:06;14.80;76.87
34472;DHT22;20710;49.976;19.836;2022-10-23T16:01:10;14.65;77.34
34472;DHT22;20710;49.976;19.836;2022-10-23T16:07:11;14.44;77.70
34472;DHT22;20710;49.976;19.836;2022-10-23T16:13:13;14.25;78.57
34472;DHT22;20710;49.976;19.836;2022-10-23T16:19:14;14.03;79.31
34472;DHT22;20710;49.976;19.836;2022-10-23T16:25:16;13.84;80.05
34472;DHT22;20710;49.976;19.836;2022-10-23T16:31:19;13.66;79.61
34472;DHT22;20710;49.976;19.836;2022-10-23T16:37:21;13.54;80.11
34472;DHT22;20710;49.976;19.836;2022-10-23T16:43:25;13.40;80.11
34472;DHT22;20710;49.976;19.836;2022-10-23T16:49:30;13.26;80.06
34472;DHT22;20710;49.976;19.836;2022-10-23T16:55:39;13.22;80.07
34472;DHT22;20710;49.976;19.836;2022-10-23T17:01:42;13.06;80.18
34472;DHT22;20710;49.976;19.836;2022-10-23T17:07:43;12.95;80.22
34472;DHT22;20710;49.976;19.836;2022-10-23T17:14:01;12.75;80.85
34472;DHT22;20710;49.976;19.836;2022-10-23T17:20:04;12.52;80.69
34472;DHT22;20710;49.976;19.836;2022-10-23T17:26:13;12.47;81.17
34472;DHT22;20710;49.976;19.836;2022-10-23T17:32:15;12.27;81.37
34472;DHT22;20710;49.976;19.836;2022-10-23T17:38:18;12.05;81.65
34472;DHT22;20710;49.976;19.836;2022-10-23T17:44:20;11.92;81.35
34472;DHT22;20710;49.976;19.836;2022-10-23T17:50:29;11.85;81.21
34472;DHT22;20710;49.976;19.836;2022-10-23T17:56:32;11.79;81.97
34472;DHT22;20710;49.976;19.836;2022-10-23T18:02:34;11.60;82.37
34472;DHT22;20710;49.976;19.836;2022-10-23T18:08:37;11.43;82.27
34472;DHT22;20710;49.976;19.836;2022-10-23T18:14:39;11.34;82.35
34472;DHT22;20710;49.976;19.836;2022-10-23T18:20:41;11.30;82.76
34472;DHT22;20710;49.976;19.836;2022-10-23T18:26:53;11.12;82.48
34472;DHT22;20710;49.976;19.836;2022-10-23T18:33:04;10.98;83.11
34472;DHT22;20710;49.976;19.836;2022-10-23T18:39:10;10.87;83.18
34472;DHT22;20710;49.976;19.836;2022-10-23T18:45:12;10.80;83.15
34472;DHT22;20710;49.976;19.836;2022-10-23T18:51:16;10.70;83.26
34472;DHT22;20710;49.976;19.836;2022-10-23T18:57:21;10.53;83.30
34472;DHT22;20710;49.976;19.836;2022-10-23T19:03:22;10.44;83.45
34472;DHT22;20710;49.976;19.836;2022-10-23T19:09:24;10.30;83.63
34472;DHT22;20710;49.976;19.836;2022-10-23T19:15:32;10.16;83.89
34472;DHT22;20710;49.976;19.836;2022-10-23T19:22:06;10.04;83.65
34472;DHT22;20710;49.976;19.836;2022-10-23T19:28:11;9.95;84.12
34472;DHT22;20710;49.976;19.836;2022-10-23T19:34:12;9.87;84.54
34472;DHT22;20710;49.976;19.836;2022-10-23T19:40:14;9.80;84.16
34472;DHT22;20710;49.976;19.836;2022-10-23T19:46:16;9.85;84.72
34472;DHT22;20710;49.976;19.836;2022-10-23T19:52:17;9.68;85.27
34472;DHT22;20710;49.976;19.836;2022-10-23T19:58:19;9.53;84.67
34472;DHT22;20710;49.976;19.836;2022-10-23T20:04:21;9.49;84.42
34472;DHT22;20710;49.976;19.836;2022-10-23T20:10:22;9.47;84.50
34472;DHT22;20710;49.976;19.836;2022-10-23T20:16:32;9.36;84.62
34472;DHT22;20710;49.976;19.836;2022-10-23T20:22:33;9.33;84.39
34472;DHT22;20710;49.976;19.836;2022-10-23T20:28:38;9.26;84.64
34472;DHT22;20710;49.976;19.836;2022-10-23T20:34:40;9.11;84.70
34472;DHT22;20710;49.976;19.836;2022-10-23T20:40:42;8.95;85.46
34472;DHT22;20710;49.976;19.836;2022-10-23T20:46:44;8.80;85.29
34472;DHT22;20710;49.976;19.836;2022-10-23T20:52:46;8.64;85.48
34472;DHT22;20710;49.976;19.836;2022-10-23T20:58:47;8.59;85.58
34472;DHT22;20710;49.976;19.836;2022-10-23T21:04:49;8.61;85.61
34472;DHT22;20710;49.976;19.836;2022-10-23T21:10:50;8.61;85.42
34472;DHT22;20710;49.976;19.836;2022-10-23T21:16:52;8.66;85.51
34472;DHT22;20710;49.976;19.836;2022-10-23T21:22:53;8.43;85.61
34472;DHT22;20710;49.976;19.836;2022-10-23T21:28:56;8.29;85.58
34472;DHT22;20710;49.976;19.836;2022-10-23T21:34:57;8.22;85.83
34472;DHT22;20710;49.976;19.836;2022-10-23T21:41:13;8.22;85.90
34472;DHT22;20710;49.976;19.836;2022-10-23T21:47:18;8.18;85.73
34472;DHT22;20710;49.976;19.836;2022-10-23T21:53:19;8.12;86.03
34472;DHT22;20710;49.976;19.836;2022-10-23T21:59:25;8.00;85.91
34472;DHT22;20710;49.976;19.836;2022-10-23T22:05:26;7.94;86.06
34472;DHT22;20710;49.976;19.836;2022-10-23T22:11:28;7.87;85.62
34472;DHT22;20710;49.976;19.836;2022-10-23T22:17:29;7.96;85.95
34472;DHT22;20710;49.976;19.836;2022-10-23T22:23:31;7.92;86.27
34472;DHT22;20710;49.976;19.836;2022-10-23T22:29:33;7.80;86.03
34472;DHT22;20710;49.976;19.836;2022-10-23T22:35:34;7.70;86.23
34472;DHT22;20710;49.976;19.836;2022-10-23T22:41:36;7.60;85.25
34472;DHT22;20710;49.976;19.836;2022-10-23T22:47:37;7.66;85.74
34472;DHT22;20710;49.976;19.836;2022-10-23T22:53:39;7.62;86.45
34472;DHT22;20710;49.976;19.836;2022-10-23T22:59:41;7.59;86.30
34472;DHT22;20710;49.976;19.836;2022-10-23T23:05:45;7.60;86.28
34472;DHT22;20710;49.976;19.836;2022-10-23T23:11:47;7.71;86.28
34472;DHT22;20710;49.976;19.836;2022-10-23T23:17:48;7.84;86.16
34472;DHT22;20710;49.976;19.836;2022-10-23T23:23:49;7.93;86.06
34472;DHT22;20710;49.976;19.836;2022-10-23T23:29:51;7.89;86.39
34472;DHT22;20710;49.976;19.836;2022-10-23T23:35:52;7.76;86.59
34472;DHT22;20710;49.976;19.836;2022-10-23T23:41:54;7.63;86.27
34472;DHT22;20710;49.976;19.836;2022-10-23T23:47:56;7.60;86.25
34472;DHT22;20710;49.976;19.836;2022-10-23T23:53:58;7.55;86.24
34472;DHT22;20710;49.976;19.836;2022-10-23T23:59:59;7.49;86.20
